Time;durP1;ratioP1;P1;durP2;ratioP2;P2;SDS_P1;SDS_P2;PMS_P1;PMS_P2;Temp;Humidity;BMP_temperature;BMP_pressure;BME280_temperature;BME280_humidity;BME280_pressure;Samples;Min_cycle;Max_cycle;Signal;HPM_P1;HPM_P2
2023/08/14 00:01:11;;;;;;;1533.97;999.90;;;;;;;;;;5017698;28;20024;-67
2023/08/14 00:03:38;;;;;;;1472.15;999.90;;;;;;;;;;5017299;28;20096;-69
2023/08/14 00:06:05;;;;;;;1481.82;999.90;;;;;;;;;;5017521;28;20018;-65
2023/08/14 00:08:31;;;;;;;1502.32;999.90;;;;;;;;;;5017466;28;20057;-68
2023/08/14 00:10:58;;;;;;;1503.07;999.90;;;;;;;;;;5024440;28;20036;-66
2023/08/14 00:13:25;;;;;;;1522.95;999.90;;;;;;;;;;5037054;28;20029;-66
2023/08/14 00:15:51;;;;;;;1502.22;999.90;;;;;;;;;;5030356;28;20496;-65
2023/08/14 00:18:18;;;;;;;1543.53;999.90;;;;;;;;;;5016958;28;20491;-65
2023/08/14 00:20:45;;;;;;;1530.47;999.90;;;;;;;;;;5017220;28;20030;-67
2023/08/14 00:23:12;;;;;;;1493.07;999.90;;;;;;;;;;5017591;28;20101;-65
2023/08/14 00:25:38;;;;;;;1538.38;999.90;;;;;;;;;;5036618;28;20029;-66
2023/08/14 00:28:05;;;;;;;1571.82;999.90;;;;;;;;;;5036449;28;20026;-67
2023/08/14 00:30:32;;;;;;;1518.03;999.90;;;;;;;;;;5036773;28;20025;-66
2023/08/14 00:32:58;;;;;;;1514.57;999.90;;;;;;;;;;5036755;28;20060;-65
2023/08/14 00:35:25;;;;;;;1484.88;999.90;;;;;;;;;;5036377;28;20071;-66
2023/08/14 00:37:51;;;;;;;1490.53;999.90;;;;;;;;;;5036697;28;20405;-66
2023/08/14 00:40:18;;;;;;;1498.40;999.90;;;;;;;;;;5036456;28;20025;-65
2023/08/14 00:42:47;;;;;;;1576.35;999.90;;;;;;;;;;5036441;28;20020;-65
2023/08/14 00:45:13;;;;;;;1534.93;999.90;;;;;;;;;;5036487;28;20456;-65
2023/08/14 00:47:41;;;;;;;1623.57;999.90;;;;;;;;;;5036414;28;20026;-65
2023/08/14 00:50:08;;;;;;;1551.60;999.90;;;;;;;;;;5036178;28;20021;-66
2023/08/14 00:52:36;;;;;;;1485.13;999.90;;;;;;;;;;5036735;28;20026;-65
2023/08/14 00:55:07;;;;;;;1524.53;999.90;;;;;;;;;;5036285;28;20140;-66
2023/08/14 00:57:34;;;;;;;1529.20;999.90;;;;;;;;;;5036163;28;20106;-65
2023/08/14 01:00:01;;;;;;;1484.22;999.90;;;;;;;;;;5036297;28;20468;-66
2023/08/14 01:02:28;;;;;;;1488.10;999.90;;;;;;;;;;5036151;28;20460;-66
2023/08/14 01:04:55;;;;;;;1444.82;999.90;;;;;;;;;;5036124;28;20029;-66
2023/08/14 01:07:21;;;;;;;1491.15;999.90;;;;;;;;;;5036148;28;20030;-66
2023/08/14 01:09:49;;;;;;;1515.95;999.90;;;;;;;;;;5035904;28;20026;-66
2023/08/14 01:12:38;;;;;;;1500.20;999.90;;;;;;;;;;5035866;28;20029;-65
2023/08/14 01:15:08;;;;;;;1495.53;999.90;;;;;;;;;;5035727;28;20037;-66
2023/08/14 01:17:36;;;;;;;1521.40;999.90;;;;;;;;;;5035870;28;20059;-66
2023/08/14 01:20:04;;;;;;;1506.97;999.90;;;;;;;;;;5035734;28;20029;-66
2023/08/14 01:22:41;;;;;;;1530.05;999.90;;;;;;;;;;5035634;28;20030;-66
2023/08/14 01:25:27;;;;;;;1515.25;999.90;;;;;;;;;;5035956;28;20025;-66
2023/08/14 01:27:54;;;;;;;1541.22;999.90;;;;;;;;;;5035580;28;20021;-67
2023/08/14 01:30:23;;;;;;;1528.18;999.90;;;;;;;;;;5035638;28;20057;-66
2023/08/14 01:32:50;;;;;;;1551.47;999.90;;;;;;;;;;5035680;28;20032;-67
2023/08/14 01:35:18;;;;;;;1377.90;999.90;;;;;;;;;;5035373;28;20036;-65
2023/08/14 01:37:44;;;;;;;1511.00;999.90;;;;;;;;;;5035448;28;20045;-66
2023/08/14 01:40:31;;;;;;;1548.05;999.90;;;;;;;;;;5035327;28;20083;-66
2023/08/14 01:43:00;;;;;;;1509.68;999.90;;;;;;;;;;5035421;28;20079;-66
2023/08/14 01:45:28;;;;;;;1461.30;999.90;;;;;;;;;;5035428;28;20021;-66
2023/08/14 01:47:55;;;;;;;1551.15;999.90;;;;;;;;;;5035131;28;20476;-66
2023/08/14 01:50:25;;;;;;;1498.72;999.90;;;;;;;;;;5035177;28;20026;-66
2023/08/14 01:52:52;;;;;;;1544.75;999.90;;;;;;;;;;5035297;28;20017;-67
2023/08/14 01:55:18;;;;;;;1482.47;999.90;;;;;;;;;;5035053;28;20029;-66
2023/08/14 01:57:45;;;;;;;1538.53;999.90;;;;;;;;;;5035216;28;20087;-66
2023/08/14 02:00:12;;;;;;;1501.18;999.90;;;;;;;;;;5035035;28;20048;-66
2023/08/14 02:02:38;;;;;;;1490.88;999.90;;;;;;;;;;5034968;28;20030;-66
2023/08/14 02:05:05;;;;;;;1207.63;999.90;;;;;;;;;;5034982;28;20025;-66
2023/08/14 02:07:32;;;;;;;1294.85;999.90;;;;;;;;;;5034893;28;20021;-66
2023/08/14 02:09:58;;;;;;;1244.03;999.90;;;;;;;;;;5034763;28;20096;-66
2023/08/14 02:12:25;;;;;;;884.15;799.30;;;;;;;;;;5035035;28;20071;-65
2023/08/14 02:14:52;;;;;;;1015.20;916.28;;;;;;;;;;5034759;28;20030;-66
2023/08/14 02:17:18;;;;;;;759.80;686.25;;;;;;;;;;5034606;28;20029;-67
2023/08/14 02:19:45;;;;;;;760.30;687.78;;;;;;;;;;5034550;28;20388;-66
2023/08/14 02:22:11;;;;;;;963.90;869.78;;;;;;;;;;5034099;28;20017;-66
2023/08/14 02:24:38;;;;;;;1157.88;999.90;;;;;;;;;;5034713;28;20451;-66
2023/08/14 02:27:05;;;;;;;1209.57;999.90;;;;;;;;;;5034534;28;20032;-66
2023/08/14 02:29:31;;;;;;;1178.47;999.90;;;;;;;;;;5034578;28;20037;-65
2023/08/14 02:31:58;;;;;;;1412.47;999.90;;;;;;;;;;5034423;28;20365;-67
2023/08/14 02:34:43;;;;;;;1527.85;999.90;;;;;;;;;;5034474;28;20036;-66
2023/08/14 02:37:10;;;;;;;1559.13;999.90;;;;;;;;;;5034207;28;20424;-66
2023/08/14 02:39:37;;;;;;;1553.18;999.90;;;;;;;;;;5034030;28;20112;-66
2023/08/14 02:42:04;;;;;;;1587.13;999.90;;;;;;;;;;5034465;28;20468;-66
2023/08/14 02:44:30;;;;;;;1578.15;999.90;;;;;;;;;;5027233;28;20037;-66
2023/08/14 02:46:58;;;;;;;1583.57;999.90;;;;;;;;;;5027204;28;20026;-66
2023/08/14 02:49:24;;;;;;;1565.57;999.90;;;;;;;;;;5023096;28;20029;-68
2023/08/14 02:51:51;;;;;;;1559.15;999.90;;;;;;;;;;5029753;28;20029;-67
2023/08/14 02:54:18;;;;;;;1565.70;999.90;;;;;;;;;;5031678;28;20053;-65
2023/08/14 02:56:44;;;;;;;1546.88;999.90;;;29.80;99.90;;;;;;5033808;28;20431;-65
2023/08/14 02:59:11;;;;;;;1591.00;999.90;;;29.90;99.90;;;;;;5033691;28;20021;-67
2023/08/14 03:01:38;;;;;;;1538.40;999.90;;;29.80;99.90;;;;;;5033420;28;20108;-72
2023/08/14 03:04:04;;;;;;;1570.15;999.90;;;29.90;99.90;;;;;;5030990;28;20018;-73
2023/08/14 03:06:31;;;;;;;1484.45;999.90;;;29.90;99.90;;;;;;5033535;28;20498;-65
2023/08/14 03:08:59;;;;;;;1443.93;999.90;;;30.00;99.90;;;;;;5033474;28;20037;-65
2023/08/14 03:11:25;;;;;;;1566.57;999.90;;;30.10;99.90;;;;;;5031137;28;20095;-65
2023/08/14 03:13:52;;;;;;;1550.00;999.90;;;30.10;99.90;;;;;;5033550;28;20025;-65
2023/08/14 03:16:19;;;;;;;1560.75;999.90;;;30.30;99.90;;;;;;5033604;28;20053;-65
2023/08/14 03:18:45;;;;;;;1544.53;999.90;;;30.30;99.90;;;;;;5033693;28;20029;-66
2023/08/14 03:21:12;;;;;;;1553.07;999.90;;;30.30;99.90;;;;;;5034078;28;20022;-66
2023/08/14 03:23:38;;;;;;;1552.85;999.90;;;30.40;99.90;;;;;;5033560;28;20460;-64
2023/08/14 03:26:05;;;;;;;1578.38;999.90;;;30.50;99.90;;;;;;5030625;28;20099;-66
2023/08/14 03:28:32;;;;;;;1604.65;999.90;;;30.50;99.90;;;;;;5033411;28;20475;-65
2023/08/14 03:30:58;;;;;;;1598.68;999.90;;;30.50;99.90;;;;;;5031608;28;20025;-64
2023/08/14 03:33:25;;;;;;;1612.88;999.90;;;30.50;99.90;;;;;;5030112;28;20036;-64
2023/08/14 03:35:54;;;;;;;1506.05;999.90;;;30.60;99.90;;;;;;5032829;28;20053;-64
2023/08/14 03:38:21;;;;;;;1505.03;999.90;;;30.70;99.90;;;;;;5032395;28;20052;-65
2023/08/14 03:40:48;;;;;;;1612.00;999.90;;;30.70;99.90;;;;;;5032928;28;20074;-64
2023/08/14 03:43:14;;;;;;;1591.80;999.90;;;30.70;99.90;;;;;;5033253;28;20018;-65
2023/08/14 03:45:41;;;;;;;1548.63;999.90;;;30.60;99.90;;;;;;5033004;28;20030;-66
2023/08/14 03:48:07;;;;;;;1538.47;999.90;;;30.60;99.90;;;;;;5033096;28;20029;-66
2023/08/14 03:50:34;;;;;;;1500.22;999.90;;;30.60;99.90;;;;;;5033144;28;20044;-68
2023/08/14 03:53:00;;;;;;;1534.97;999.90;;;30.60;99.90;;;;;;5033361;28;20105;-65
2023/08/14 03:55:27;;;;;;;1531.20;999.90;;;30.60;99.90;;;;;;5032967;28;20025;-67
2023/08/14 03:57:56;;;;;;;1547.35;999.90;;;30.60;99.90;;;;;;5033140;28;20041;-65
2023/08/14 04:00:22;;;;;;;1565.43;999.90;;;30.70;99.90;;;;;;5032654;28;20025;-64
2023/08/14 04:02:49;;;;;;;1570.50;999.90;;;30.70;99.90;;;;;;5032543;28;20080;-65
2023/08/14 04:05:16;;;;;;;1584.32;999.90;;;30.70;99.90;;;;;;5033018;28;20024;-65
2023/08/14 04:07:42;;;;;;;1588.00;999.90;;;30.70;99.90;;;;;;5032775;28;20026;-66
2023/08/14 04:10:09;;;;;;;1559.05;999.90;;;30.80;99.90;;;;;;5026141;28;20063;-65
2023/08/14 04:12:35;;;;;;;1560.57;999.90;;;30.90;99.90;;;;;;5027872;28;20037;-65
2023/08/14 04:15:13;;;;;;;1537.70;999.90;;;30.80;99.90;;;;;;5031373;28;20033;-66
2023/08/14 04:17:40;;;;;;;1545.97;999.90;;;30.90;99.90;;;;;;5032073;28;20041;-68
2023/08/14 04:20:08;;;;;;;1571.68;999.90;;;31.00;99.90;;;;;;5032261;28;20028;-67
2023/08/14 04:22:34;;;;;;;1555.40;999.90;;;31.00;99.90;;;;;;5032074;28;20155;-66
2023/08/14 04:25:01;;;;;;;1516.13;999.90;;;31.00;99.90;;;;;;5030575;28;20025;-67
2023/08/14 04:27:28;;;;;;;1498.35;999.90;;;31.10;99.90;;;;;;5029830;28;20020;-68
2023/08/14 04:29:54;;;;;;;1505.15;999.90;;;31.10;99.90;;;;;;5031252;28;20382;-68
2023/08/14 04:32:21;;;;;;;1530.55;999.90;;;31.30;99.90;;;;;;5030971;28;20052;-68
2023/08/14 04:34:47;;;;;;;1535.38;999.90;;;31.30;99.90;;;;;;5032114;28;20085;-70
2023/08/14 04:37:14;;;;;;;1395.03;999.90;;;31.30;99.90;;;;;;5031775;28;20095;-69
2023/08/14 04:39:40;;;;;;;1431.55;999.90;;;31.40;99.90;;;;;;5030264;28;20404;-68
2023/08/14 04:42:07;;;;;;;1138.22;996.47;;;31.40;99.90;;;;;;5032132;28;20039;-68
2023/08/14 04:44:33;;;;;;;1510.15;999.90;;;31.40;99.90;;;;;;5033311;28;20156;-65
2023/08/14 04:47:00;;;;;;;1267.10;999.90;;;31.40;99.90;;;;;;5014153;28;20515;-67
2023/08/14 04:49:26;;;;;;;1196.30;999.90;;;31.40;99.90;;;;;;5035760;28;20522;-66
2023/08/14 04:51:53;;;;;;;1336.90;999.90;;;31.40;99.90;;;;;;5035576;28;20033;-67
2023/08/14 04:54:20;;;;;;;1247.38;999.90;;;31.40;99.90;;;;;;5035317;28;20594;-65
2023/08/14 04:56:46;;;;;;;1069.65;957.58;;;31.40;99.90;;;;;;5035481;28;20037;-65
2023/08/14 04:59:13;;;;;;;449.10;401.02;;;31.40;99.90;;;;;;5035538;28;20059;-68
2023/08/14 05:01:39;;;;;;;136.35;122.75;;;31.40;99.90;;;;;;5035237;28;20068;-67
2023/08/14 05:04:06;;;;;;;71.28;59.83;;;31.40;99.90;;;;;;5033293;28;20074;-66
2023/08/14 05:06:32;;;;;;;413.83;372.77;;;31.30;99.90;;;;;;5035309;28;20022;-72
2023/08/14 05:08:59;;;;;;;32.03;23.38;;;31.30;99.90;;;;;;5033526;28;20087;-67
2023/08/14 05:11:25;;;;;;;32.08;24.80;;;31.40;99.90;;;;;;5034243;28;20433;-69
2023/08/14 05:13:52;;;;;;;201.85;181.55;;;31.40;99.90;;;;;;5035551;28;20022;-68
2023/08/14 05:16:19;;;;;;;277.17;250.02;;;31.40;99.90;;;;;;5035781;28;20026;-67
2023/08/14 05:18:46;;;;;;;639.22;552.75;;;31.40;99.90;;;;;;5036044;28;20033;-67
2023/08/14 05:21:12;;;;;;;1577.35;999.90;;;31.40;99.90;;;;;;5035877;28;20028;-70
2023/08/14 05:23:39;;;;;;;1521.88;999.90;;;31.50;99.90;;;;;;5035581;28;20410;-67
2023/08/14 05:26:05;;;;;;;1573.82;999.90;;;31.60;99.90;;;;;;5035947;28;20021;-67
2023/08/14 05:28:32;;;;;;;1536.55;999.90;;;31.50;99.90;;;;;;5035540;28;20025;-67
2023/08/14 05:30:59;;;;;;;1499.13;999.90;;;31.50;99.90;;;;;;5035305;28;20036;-71
2023/08/14 05:33:26;;;;;;;1530.00;999.90;;;31.50;99.90;;;;;;5035874;28;20499;-68
2023/08/14 05:35:52;;;;;;;1558.72;999.90;;;31.50;99.90;;;;;;5035270;28;20041;-69
2023/08/14 05:38:19;;;;;;;1531.30;999.90;;;31.60;99.90;;;;;;5032520;28;20025;-67
2023/08/14 05:40:45;;;;;;;1550.22;999.90;;;31.70;99.90;;;;;;5035117;28;20105;-65
2023/08/14 05:43:12;;;;;;;1527.88;999.90;;;31.70;99.90;;;;;;5033980;28;20052;-69
2023/08/14 05:45:44;;;;;;;1537.45;999.90;;;31.80;99.90;;;;;;5029027;28;20380;-68
2023/08/14 05:48:12;;;;;;;1482.68;999.90;;;31.80;99.90;;;;;;5029924;28;20056;-69
2023/08/14 05:50:39;;;;;;;1475.78;999.90;;;31.90;99.90;;;;;;5031645;28;20488;-70
2023/08/14 05:53:07;;;;;;;1265.07;999.90;;;32.00;99.90;;;;;;5035702;28;20028;-76
2023/08/14 05:55:36;;;;;;;1457.72;999.90;;;32.00;99.90;;;;;;5032080;28;20033;-72
2023/08/14 05:58:03;;;;;;;1459.03;999.90;;;31.90;99.90;;;;;;5034980;28;20029;-76
2023/08/14 06:00:30;;;;;;;1427.20;999.90;;;31.90;99.90;;;;;;5034893;28;20025;-76
2023/08/14 06:02:57;;;;;;;1424.50;999.90;;;31.90;99.90;;;;;;5034948;28;20013;-73
2023/08/14 06:05:24;;;;;;;1501.18;999.90;;;32.00;99.90;;;;;;5029790;28;20076;-69
2023/08/14 06:07:52;;;;;;;1499.30;999.90;;;32.20;99.90;;;;;;5030834;28;20048;-71
2023/08/14 06:10:20;;;;;;;1406.28;999.90;;;32.30;99.90;;;;;;5035643;28;20021;-67
2023/08/14 06:12:49;;;;;;;1505.72;999.90;;;32.40;99.90;;;;;;5030695;28;20044;-66
2023/08/14 06:15:17;;;;;;;1514.00;999.90;;;32.50;99.90;;;;;;5023498;28;20026;-67
2023/08/14 06:17:44;;;;;;;1502.18;999.90;;;32.60;99.90;;;;;;5014980;28;20022;-68
2023/08/14 06:20:11;;;;;;;1430.25;999.90;;;32.70;99.90;;;;;;5014768;28;20025;-68
2023/08/14 06:22:44;;;;;;;1465.65;999.90;;;32.70;99.90;;;;;;5015288;28;20083;-73
2023/08/14 06:25:12;;;;;;;1506.93;999.90;;;32.70;99.90;;;;;;5014916;28;20105;-67
2023/08/14 06:27:39;;;;;;;1363.00;999.90;;;32.60;99.90;;;;;;5017688;28;20034;-68
2023/08/14 06:30:10;;;;;;;1498.15;999.90;;;32.60;99.90;;;;;;5014744;28;20461;-67
2023/08/14 06:32:38;;;;;;;1496.65;999.90;;;32.60;99.90;;;;;;5015275;28;20034;-68
2023/08/14 06:35:06;;;;;;;1490.68;999.90;;;32.50;99.90;;;;;;5015018;28;20050;-67
2023/08/14 06:37:33;;;;;;;1495.70;999.90;;;32.60;99.90;;;;;;5030682;28;20407;-71
2023/08/14 06:39:59;;;;;;;1499.32;999.90;;;32.60;99.90;;;;;;5014816;28;20399;-72
2023/08/14 06:42:26;;;;;;;1518.47;999.90;;;32.70;99.90;;;;;;5014638;28;20036;-73
2023/08/14 06:44:52;;;;;;;1517.25;999.90;;;32.70;99.90;;;;;;5014517;28;20022;-72
2023/08/14 06:47:19;;;;;;;1505.88;999.90;;;32.80;99.90;;;;;;5014531;28;20022;-73
2023/08/14 06:49:46;;;;;;;1503.25;999.90;;;32.90;99.90;;;;;;5014259;28;20030;-72
2023/08/14 06:52:13;;;;;;;1514.50;999.90;;;32.90;99.90;;;;;;5014205;28;20028;-73
2023/08/14 06:54:40;;;;;;;1509.68;999.90;;;33.00;99.90;;;;;;5014331;28;20080;-70
2023/08/14 06:57:08;;;;;;;1530.38;999.90;;;33.00;99.90;;;;;;5014218;28;20033;-69
2023/08/14 06:59:34;;;;;;;1514.15;999.90;;;32.90;99.90;;;;;;5014385;28;20030;-69
2023/08/14 07:02:01;;;;;;;1509.07;999.90;;;32.80;99.90;;;;;;5014527;28;20030;-69
2023/08/14 07:04:28;;;;;;;1498.95;999.90;;;32.80;99.90;;;;;;5014692;28;20093;-68
2023/08/14 07:06:54;;;;;;;1477.15;999.90;;;32.90;99.90;;;;;;5014509;28;20428;-70
2023/08/14 07:09:21;;;;;;;1518.55;999.90;;;33.10;99.90;;;;;;5015041;28;20072;-69
2023/08/14 07:11:48;;;;;;;1500.85;999.90;;;33.20;99.90;;;;;;5014313;28;20034;-68
2023/08/14 07:14:15;;;;;;;1530.47;999.90;;;33.20;99.90;;;;;;5014227;28;20021;-68
2023/08/14 07:16:41;;;;;;;1133.43;921.50;;;33.20;99.90;;;;;;5013810;28;20034;-65
2023/08/14 07:19:08;;;;;;;1292.55;999.90;;;33.20;99.90;;;;;;5013640;28;20026;-66
2023/08/14 07:21:35;;;;;;;1366.25;999.90;;;33.40;99.90;;;;;;5013534;28;20022;-64
2023/08/14 07:24:01;;;;;;;1500.10;999.90;;;33.50;99.90;;;;;;5013675;28;20477;-64
2023/08/14 07:26:28;;;;;;;1482.60;999.90;;;33.50;99.90;;;;;;5013868;28;20425;-64
2023/08/14 07:28:54;;;;;;;1247.10;999.90;;;33.50;99.90;;;;;;5013566;28;20132;-66
2023/08/14 07:31:21;;;;;;;1415.80;999.90;;;33.50;99.90;;;;;;5013810;28;20064;-66
2023/08/14 07:33:47;;;;;;;1437.38;999.90;;;33.40;99.90;;;;;;5014070;28;20511;-66
2023/08/14 07:36:14;;;;;;;1438.88;999.90;;;33.40;99.90;;;;;;5013316;28;20052;-65
2023/08/14 07:38:40;;;;;;;1445.53;999.90;;;33.30;99.90;;;;;;5013553;28;20030;-63
2023/08/14 07:41:07;;;;;;;1491.05;999.90;;;33.20;99.90;;;;;;5013699;28;20032;-64
2023/08/14 07:43:33;;;;;;;1519.57;999.90;;;33.20;99.90;;;;;;5013303;28;20050;-66
2023/08/14 07:46:00;;;;;;;1403.10;999.90;;;33.20;99.90;;;;;;5013420;28;20017;-66
2023/08/14 07:48:26;;;;;;;1423.13;999.90;;;33.20;99.90;;;;;;5013983;28;20109;-65
2023/08/14 07:50:54;;;;;;;1474.80;999.90;;;33.20;99.90;;;;;;5019184;28;20053;-66
2023/08/14 07:53:21;;;;;;;1451.10;999.90;;;33.20;99.90;;;;;;5025680;28;20538;-64
2023/08/14 07:55:48;;;;;;;1465.63;999.90;;;33.20;99.90;;;;;;5033231;28;20072;-63
2023/08/14 07:58:16;;;;;;;1536.97;999.90;;;33.20;99.90;;;;;;5030618;28;20101;-68
2023/08/14 08:00:43;;;;;;;1407.97;999.90;;;33.20;99.90;;;;;;5027964;28;20036;-67
2023/08/14 08:03:10;;;;;;;1246.93;999.90;;;33.20;99.90;;;;;;5030675;28;20033;-65
2023/08/14 08:05:37;;;;;;;1250.28;999.90;;;33.20;99.90;;;;;;5032830;28;20021;-65
2023/08/14 08:08:04;;;;;;;1234.20;999.90;;;33.10;99.90;;;;;;5030978;28;20041;-65
2023/08/14 08:10:30;;;;;;;1252.13;999.90;;;33.10;99.90;;;;;;5031395;28;20437;-64
2023/08/14 08:12:57;;;;;;;1211.35;999.90;;;33.20;99.90;;;;;;5031301;28;20045;-66
2023/08/14 08:15:24;;;;;;;1177.28;999.90;;;33.10;99.90;;;;;;5031204;28;20045;-64
2023/08/14 08:17:50;;;;;;;1186.75;998.10;;;33.00;99.90;;;;;;5031015;28;20045;-65
2023/08/14 08:20:17;;;;;;;1218.82;999.90;;;32.90;99.90;;;;;;5032686;28;20034;-68
2023/08/14 08:22:43;;;;;;;1283.60;999.90;;;32.90;99.90;;;;;;5034981;28;20021;-65
2023/08/14 08:25:10;;;;;;;1199.85;999.90;;;32.90;99.90;;;;;;5033833;28;20061;-63
2023/08/14 08:27:36;;;;;;;1298.55;999.90;;;32.80;99.90;;;;;;5035436;28;20032;-63
2023/08/14 08:30:04;;;;;;;1329.97;999.90;;;32.80;99.90;;;;;;5032695;28;20091;-63
2023/08/14 08:32:30;;;;;;;1401.72;999.90;;;32.80;99.90;;;;;;5036104;28;20475;-65
2023/08/14 08:34:57;;;;;;;1335.82;999.90;;;32.80;99.90;;;;;;5034190;28;20026;-64
2023/08/14 08:37:23;;;;;;;1533.10;999.90;;;32.70;99.90;;;;;;5035908;28;20498;-69
2023/08/14 08:39:50;;;;;;;1496.82;999.90;;;32.80;99.90;;;;;;5034170;28;20109;-67
2023/08/14 08:42:18;;;;;;;1533.35;999.90;;;32.80;99.90;;;;;;5034415;28;20079;-67
2023/08/14 08:44:45;;;;;;;1522.75;999.90;;;32.80;99.90;;;;;;5034209;28;20423;-69
2023/08/14 08:47:15;;;;;;;1543.85;999.90;;;32.80;99.90;;;;;;5036001;28;20022;-65
2023/08/14 08:49:42;;;;;;;1506.53;999.90;;;32.80;99.90;;;;;;5031412;28;20480;-65
2023/08/14 08:52:09;;;;;;;1514.20;999.90;;;32.70;99.90;;;;;;5035705;28;20021;-66
2023/08/14 08:54:36;;;;;;;1562.75;999.90;;;32.70;99.90;;;;;;5033690;28;20039;-64
2023/08/14 08:57:05;;;;;;;1510.90;999.90;;;32.70;99.90;;;;;;5035592;28;20086;-69
2023/08/14 08:59:33;;;;;;;1331.50;999.90;;;32.60;99.90;;;;;;5033491;28;20021;-64
2023/08/14 09:02:00;;;;;;;1375.65;999.90;;;32.60;99.90;;;;;;5017720;28;20060;-64
2023/08/14 09:04:27;;;;;;;1405.30;999.90;;;32.60;99.90;;;;;;5033266;28;20049;-66
2023/08/14 09:06:54;;;;;;;1398.32;999.90;;;32.60;99.90;;;;;;5034060;28;20022;-68
2023/08/14 09:09:21;;;;;;;1383.68;999.90;;;32.60;99.90;;;;;;5032451;28;20045;-65
2023/08/14 09:11:47;;;;;;;1383.60;999.90;;;32.60;99.90;;;;;;5036172;28;20033;-66
2023/08/14 09:14:15;;;;;;;1194.78;999.90;;;32.60;99.90;;;;;;5034462;28;20079;-65
2023/08/14 09:16:42;;;;;;;1165.65;999.90;;;32.70;99.90;;;;;;5028061;28;20034;-66
2023/08/14 09:19:09;;;;;;;1189.15;999.90;;;32.60;99.90;;;;;;5027511;28;20026;-66
2023/08/14 09:21:37;;;;;;;1221.95;999.90;;;32.60;99.90;;;;;;5025853;28;20536;-65
2023/08/14 09:24:04;;;;;;;1173.97;999.90;;;32.60;99.90;;;;;;5033905;28;20036;-66
2023/08/14 09:26:30;;;;;;;1216.35;999.90;;;32.60;99.90;;;;;;5036018;28;20538;-67
2023/08/14 09:28:57;;;;;;;1255.78;999.90;;;32.60;99.90;;;;;;5027065;28;20041;-67
2023/08/14 09:31:23;;;;;;;1362.22;999.90;;;32.60;99.90;;;;;;5020270;28;20028;-66
2023/08/14 09:33:50;;;;;;;1406.20;999.90;;;32.60;99.90;;;;;;5020368;28;20037;-65
2023/08/14 09:36:17;;;;;;;1411.70;999.90;;;32.60;99.90;;;;;;5023345;28;20053;-64
2023/08/14 09:38:43;;;;;;;1518.95;999.90;;;32.60;99.90;;;;;;5019338;28;20037;-66
2023/08/14 09:41:10;;;;;;;1354.60;999.90;;;32.60;99.90;;;;;;5030954;28;20543;-66
2023/08/14 09:43:37;;;;;;;1240.78;999.90;;;32.50;99.90;;;;;;5033595;28;20175;-68
2023/08/14 09:46:04;;;;;;;1439.57;999.90;;;32.50;99.90;;;;;;5035647;28;20080;-69
2023/08/14 09:48:51;;;;;;;1492.60;999.90;;;32.50;99.90;;;;;;5033417;28;20049;-66
2023/08/14 09:51:18;;;;;;;1466.63;999.90;;;32.60;99.90;;;;;;5035608;28;20111;-65
2023/08/14 09:53:56;;;;;;;1526.63;999.90;;;32.60;99.90;;;;;;5033685;28;20025;-66
2023/08/14 09:56:23;;;;;;;1461.32;999.90;;;32.50;99.90;;;;;;5018450;28;20611;-68
2023/08/14 09:58:52;;;;;;;1606.55;999.90;;;32.50;99.90;;;;;;5030527;28;20049;-65
2023/08/14 10:01:20;;;;;;;1461.57;999.90;;;32.50;99.90;;;;;;5034126;28;20025;-67
2023/08/14 10:03:53;;;;;;;1582.25;999.90;;;32.40;99.90;;;;;;5033289;28;20499;-67
2023/08/14 10:06:23;;;;;;;1323.30;999.90;;;32.40;99.90;;;;;;5035215;28;20021;-66
2023/08/14 10:08:54;;;;;;;1455.50;999.90;;;32.40;99.90;;;;;;5030188;28;20049;-66
2023/08/14 10:11:25;;;;;;;1384.20;999.90;;;32.30;99.90;;;;;;5035221;28;20040;-65
2023/08/14 10:13:55;;;;;;;1748.38;999.90;;;32.30;99.90;;;;;;5030625;28;20051;-64
2023/08/14 10:16:24;;;;;;;1582.53;999.90;;;32.30;99.90;;;;;;5035000;28;20036;-66
2023/08/14 10:18:56;;;;;;;1569.00;999.90;;;32.30;99.90;;;;;;5030815;28;20030;-66
2023/08/14 10:21:26;;;;;;;1567.97;999.90;;;32.20;99.90;;;;;;5034232;28;20376;-65
2023/08/14 10:23:59;;;;;;;1587.50;999.90;;;32.20;99.90;;;;;;5030273;28;20030;-68
2023/08/14 10:26:26;;;;;;;1514.25;999.90;;;32.20;99.90;;;;;;5033054;28;20472;-66
2023/08/14 10:28:53;;;;;;;1565.97;999.90;;;32.20;99.90;;;;;;5032186;28;20018;-67
2023/08/14 10:31:21;;;;;;;1547.53;999.90;;;32.10;99.90;;;;;;5034264;28;20088;-64
2023/08/14 10:33:48;;;;;;;1533.68;999.90;;;32.20;99.90;;;;;;5032230;28;20384;-64
2023/08/14 10:36:28;;;;;;;1559.57;999.90;;;32.20;99.90;;;;;;5031590;28;20049;-65
2023/08/14 10:38:54;;;;;;;1545.05;999.90;;;32.10;99.90;;;;;;5028594;28;20475;-64
2023/08/14 10:41:21;;;;;;;1372.82;999.90;;;32.10;99.90;;;;;;5033860;28;20472;-66
2023/08/14 10:43:50;;;;;;;1711.38;999.90;;;32.00;99.90;;;;;;5031736;28;20029;-67
2023/08/14 10:46:17;;;;;;;1613.53;999.90;;;32.00;99.90;;;;;;5029228;28;20037;-66
2023/08/14 10:48:48;;;;;;;1544.10;999.90;;;31.90;99.90;;;;;;5031523;28;20025;-67
2023/08/14 10:51:19;;;;;;;1533.05;999.90;;;31.90;99.90;;;;;;5033474;28;20022;-65
2023/08/14 10:53:45;;;;;;;1480.05;999.90;;;31.90;99.90;;;;;;5031455;28;20076;-66
2023/08/14 10:56:13;;;;;;;1412.95;999.90;;;31.90;99.90;;;;;;5033170;28;20052;-65
2023/08/14 10:58:47;;;;;;;1503.55;999.90;;;31.80;99.90;;;;;;5031218;28;20380;-65
2023/08/14 11:01:14;;;;;;;1381.85;999.90;;;31.70;99.90;;;;;;5033075;28;20025;-66
2023/08/14 11:04:10;;;;;;;1428.35;999.90;;;31.80;99.90;;;;;;5031191;28;20079;-67
2023/08/14 11:06:57;;;;;;;1270.20;999.90;;;31.80;99.90;;;;;;5031455;28;20025;-67
2023/08/14 11:09:26;;;;;;;1290.07;999.90;;;31.70;99.90;;;;;;5033063;28;20108;-66
2023/08/14 11:11:57;;;;;;;1368.50;999.90;;;31.70;99.90;;;;;;5033033;28;20071;-67
2023/08/14 11:14:24;;;;;;;1203.75;999.90;;;31.70;99.90;;;;;;5032470;28;21127;-65
2023/08/14 11:16:50;;;;;;;1276.95;999.90;;;31.60;99.90;;;;;;5030710;28;20029;-65
2023/08/14 11:19:19;;;;;;;1333.65;999.90;;;31.60;99.90;;;;;;5029374;28;20025;-65
2023/08/14 11:21:48;;;;;;;1325.03;999.90;;;31.60;99.90;;;;;;5032456;28;20025;-65
2023/08/14 11:24:15;;;;;;;1286.65;999.90;;;31.60;99.90;;;;;;5031607;28;20021;-67
2023/08/14 11:26:41;;;;;;;1315.53;999.90;;;31.60;99.90;;;;;;5032491;28;20028;-68
2023/08/14 11:29:08;;;;;;;1348.35;999.90;;;31.60;99.90;;;;;;5032381;28;20033;-66
2023/08/14 11:31:36;;;;;;;1310.18;999.90;;;31.50;99.90;;;;;;5032943;28;20361;-70
2023/08/14 11:34:06;;;;;;;1370.50;999.90;;;31.50;99.90;;;;;;5030522;28;20512;-69
2023/08/14 11:36:33;;;;;;;1503.60;999.90;;;31.40;99.90;;;;;;5032457;28;20064;-68
2023/08/14 11:39:00;;;;;;;1478.18;999.90;;;31.40;99.90;;;;;;5028836;28;20064;-69
2023/08/14 11:41:26;;;;;;;1498.00;999.90;;;31.40;99.90;;;;;;5032455;28;20419;-67
2023/08/14 11:43:53;;;;;;;1473.53;999.90;;;31.30;99.90;;;;;;5030845;28;20041;-68
2023/08/14 11:46:20;;;;;;;1520.78;999.90;;;31.30;99.90;;;;;;5032469;28;20056;-69
2023/08/14 11:48:47;;;;;;;1512.13;999.90;;;31.20;99.90;;;;;;5027336;28;20026;-68
2023/08/14 11:51:15;;;;;;;1526.32;999.90;;;31.20;99.90;;;;;;5032022;28;20084;-70
2023/08/14 11:53:43;;;;;;;1523.13;999.90;;;31.20;99.90;;;;;;5030438;28;20421;-67
2023/08/14 11:56:10;;;;;;;1513.32;999.90;;;31.20;99.90;;;;;;5032601;28;20022;-68
2023/08/14 11:58:38;;;;;;;1501.72;999.90;;;31.10;99.90;;;;;;5031651;28;20392;-71
2023/08/14 12:01:05;;;;;;;1503.07;999.90;;;31.00;99.90;;;;;;5029332;28;20075;-71
2023/08/14 12:03:32;;;;;;;1505.78;999.90;;;31.00;99.90;;;;;;5030244;28;20017;-67
2023/08/14 12:06:03;;;;;;;1515.88;999.90;;;31.00;99.90;;;;;;5032260;28;20018;-66
2023/08/14 12:08:30;;;;;;;1531.53;999.90;;;31.00;99.90;;;;;;5028066;28;20050;-68
2023/08/14 12:10:58;;;;;;;1506.50;999.90;;;30.90;99.90;;;;;;5032301;28;20022;-69
2023/08/14 12:13:24;;;;;;;1514.97;999.90;;;30.90;99.90;;;;;;5031341;28;20021;-68
2023/08/14 12:15:51;;;;;;;1500.75;999.90;;;30.90;99.90;;;;;;5032183;28;20499;-67
2023/08/14 12:18:26;;;;;;;1477.68;999.90;;;30.90;99.90;;;;;;5030904;28;20042;-66
2023/08/14 12:20:54;;;;;;;1499.53;999.90;;;30.90;99.90;;;;;;5029432;28;20065;-66
2023/08/14 12:23:23;;;;;;;1491.85;999.90;;;30.90;99.90;;;;;;5030188;28;20447;-67